Time;durP1;ratioP1;P1;durP2;ratioP2;P2;SDS_P1;SDS_P2;PMS_P1;PMS_P2;Temp;Humidity;BMP_temperature;BMP_pressure;BME280_temperature;BME280_humidity;BME280_pressure;Samples;Min_cycle;Max_cycle;Signal;HPM_P1;HPM_P2
2020/12/11 00:01:41;;;;;;;29.97;18.20;;;2.20;99.90;;;;;;5084027;28;20207;-71
2020/12/11 00:04:07;;;;;;;34.00;19.70;;;2.20;99.90;;;;;;5079404;28;20305;-72
2020/12/11 00:06:34;;;;;;;32.57;19.70;;;2.20;99.90;;;;;;5074961;28;20680;-71
2020/12/11 00:09:00;;;;;;;32.93;18.37;;;2.30;99.90;;;;;;5073782;28;20204;-70
2020/12/11 00:11:29;;;;;;;31.53;19.77;;;2.20;99.90;;;;;;5074330;28;20565;-71
2020/12/11 00:13:55;;;;;;;32.20;19.13;;;2.30;99.90;;;;;;5072773;28;20282;-72
2020/12/11 00:16:22;;;;;;;35.23;19.17;;;2.30;99.90;;;;;;5071645;28;20292;-72
2020/12/11 00:18:48;;;;;;;29.43;18.17;;;2.30;99.90;;;;;;5074502;28;20232;-71
2020/12/11 00:21:15;;;;;;;31.33;19.17;;;2.20;99.90;;;;;;5074588;28;20294;-71
2020/12/11 00:23:41;;;;;;;34.27;19.87;;;2.20;99.90;;;;;;5074609;28;20208;-72
2020/12/11 00:26:07;;;;;;;30.40;19.50;;;2.30;99.90;;;;;;5074492;28;20209;-72
2020/12/11 00:28:35;;;;;;;33.10;18.07;;;2.20;99.90;;;;;;5080759;28;20281;-71
2020/12/11 00:31:01;;;;;;;37.07;19.60;;;2.30;99.90;;;;;;5082202;28;20228;-72
2020/12/11 00:33:27;;;;;;;30.77;17.77;;;2.30;99.90;;;;;;5073466;28;20287;-71
2020/12/11 00:35:54;;;;;;;33.80;19.63;;;2.30;99.90;;;;;;5075702;28;20204;-72
2020/12/11 00:38:21;;;;;;;32.37;18.23;;;2.30;99.90;;;;;;5077262;28;20221;-72
2020/12/11 00:40:47;;;;;;;35.37;19.90;;;2.30;99.90;;;;;;5072168;28;20296;-72
2020/12/11 00:43:14;;;;;;;32.63;19.53;;;2.30;99.90;;;;;;5070514;28;20684;-72
2020/12/11 00:45:41;;;;;;;35.30;18.87;;;2.30;99.90;;;;;;5075073;28;20203;-71
2020/12/11 00:48:07;;;;;;;33.53;19.83;;;2.30;99.90;;;;;;5074015;28;20213;-72
2020/12/11 00:50:34;;;;;;;31.20;20.07;;;2.30;99.90;;;;;;5076238;28;20208;-72
2020/12/11 00:53:00;;;;;;;32.90;19.83;;;2.30;99.90;;;;;;5074530;28;20741;-71
2020/12/11 00:55:27;;;;;;;31.73;19.23;;;2.30;99.90;;;;;;5085794;28;20575;-72
2020/12/11 00:57:53;;;;;;;30.13;18.77;;;2.30;99.90;;;;;;5073806;28;20224;-71
2020/12/11 01:00:20;;;;;;;30.17;19.07;;;2.30;99.90;;;;;;5086005;28;20201;-72
2020/12/11 01:02:47;;;;;;;30.77;18.40;;;2.30;99.90;;;;;;5079247;28;20565;-72
2020/12/11 01:05:13;;;;;;;31.97;18.77;;;2.40;99.90;;;;;;5073490;28;20285;-73
2020/12/11 01:07:40;;;;;;;32.20;18.97;;;2.30;99.90;;;;;;5073513;28;20205;-71
2020/12/11 01:10:09;;;;;;;32.13;19.80;;;2.40;99.90;;;;;;5072762;28;20328;-71
2020/12/11 01:12:35;;;;;;;31.83;19.13;;;2.40;99.90;;;;;;5070169;28;20676;-72
2020/12/11 01:15:02;;;;;;;31.23;18.63;;;2.40;99.90;;;;;;5073306;28;20303;-72
2020/12/11 01:17:28;;;;;;;33.30;19.67;;;2.30;99.90;;;;;;5072777;28;20640;-72
2020/12/11 01:19:55;;;;;;;30.27;19.97;;;2.40;99.90;;;;;;5073041;28;20216;-72
2020/12/11 01:22:22;;;;;;;28.70;18.57;;;2.40;99.90;;;;;;5073840;28;20522;-71
2020/12/11 01:24:48;;;;;;;33.57;18.20;;;2.40;99.90;;;;;;5072831;28;20233;-72
2020/12/11 01:27:15;;;;;;;28.37;17.67;;;2.40;99.90;;;;;;5070978;28;20284;-72
2020/12/11 01:29:41;;;;;;;31.23;18.10;;;2.40;99.90;;;;;;5088334;28;20236;-72
2020/12/11 01:32:07;;;;;;;28.73;18.57;;;2.40;99.90;;;;;;5073879;28;20717;-72
2020/12/11 01:34:33;;;;;;;31.17;18.67;;;2.40;99.90;;;;;;5073664;28;20209;-71
2020/12/11 01:37:05;;;;;;;31.33;19.43;;;2.40;99.90;;;;;;5073005;28;20211;-70
2020/12/11 01:39:32;;;;;;;28.97;18.80;;;2.40;99.90;;;;;;5073211;28;20680;-70
2020/12/11 01:41:59;;;;;;;29.17;17.97;;;2.40;99.90;;;;;;5066454;28;20215;-71
2020/12/11 01:44:26;;;;;;;32.93;18.60;;;2.40;99.90;;;;;;5070937;28;20314;-71
2020/12/11 01:46:56;;;;;;;29.93;19.67;;;2.40;99.90;;;;;;5073068;28;20292;-72
2020/12/11 01:49:23;;;;;;;28.23;17.73;;;2.40;99.90;;;;;;5073585;28;20213;-72
2020/12/11 01:51:50;;;;;;;31.17;18.27;;;2.40;99.90;;;;;;5073140;28;20224;-71
2020/12/11 01:54:18;;;;;;;31.57;18.47;;;2.40;99.90;;;;;;5073833;28;20212;-70
2020/12/11 01:56:50;;;;;;;26.33;17.63;;;2.50;99.90;;;;;;5062454;28;20202;-71
2020/12/11 01:59:23;;;;;;;27.40;18.00;;;2.50;99.90;;;;;;5070324;28;20219;-71
2020/12/11 02:01:54;;;;;;;25.47;17.67;;;2.40;99.90;;;;;;5078694;28;20259;-70
2020/12/11 02:04:20;;;;;;;27.53;17.40;;;2.50;99.90;;;;;;5072369;28;20221;-71
2020/12/11 02:06:50;;;;;;;25.03;17.40;;;2.50;99.90;;;;;;5072630;28;20203;-70
2020/12/11 02:09:19;;;;;;;27.33;16.57;;;2.50;99.90;;;;;;5073114;28;20200;-71
2020/12/11 02:11:45;;;;;;;26.53;18.07;;;2.50;99.90;;;;;;5075231;28;20232;-71
2020/12/11 02:14:12;;;;;;;26.93;17.93;;;2.50;99.90;;;;;;5078510;28;20207;-71
2020/12/11 02:16:38;;;;;;;28.47;18.10;;;2.40;99.90;;;;;;5070821;28;20649;-71
2020/12/11 02:19:05;;;;;;;29.67;17.63;;;2.40;99.90;;;;;;5081487;28;20216;-71
2020/12/11 02:21:32;;;;;;;25.63;17.17;;;2.50;99.90;;;;;;5074152;28;20211;-71
2020/12/11 02:23:58;;;;;;;24.57;16.53;;;2.50;99.90;;;;;;5071813;28;20576;-71
2020/12/11 02:26:25;;;;;;;25.80;17.53;;;2.50;99.90;;;;;;5076850;28;20215;-72
2020/12/11 02:28:51;;;;;;;25.63;16.20;;;2.50;99.90;;;;;;5077972;28;20665;-72
2020/12/11 02:31:18;;;;;;;27.97;17.67;;;2.40;99.90;;;;;;5075316;28;20201;-72
2020/12/11 02:33:44;;;;;;;22.80;15.70;;;2.40;99.90;;;;;;5072753;28;20197;-72
2020/12/11 02:36:10;;;;;;;25.27;16.13;;;2.40;99.90;;;;;;5080521;28;20554;-72
2020/12/11 02:38:38;;;;;;;25.63;16.60;;;2.50;99.90;;;;;;5074094;28;20336;-71
2020/12/11 02:41:08;;;;;;;26.33;17.20;;;2.50;99.90;;;;;;5075031;28;20206;-71
2020/12/11 02:43:37;;;;;;;24.97;16.47;;;2.50;99.90;;;;;;5076300;28;20201;-72
2020/12/11 02:46:04;;;;;;;27.23;16.70;;;2.40;99.90;;;;;;5080351;28;20214;-72
2020/12/11 02:48:31;;;;;;;27.93;17.60;;;2.50;99.90;;;;;;5081995;28;20204;-73
2020/12/11 02:50:57;;;;;;;28.07;17.27;;;2.50;99.90;;;;;;5072903;28;20702;-72
2020/12/11 02:53:23;;;;;;;27.10;16.67;;;2.50;99.90;;;;;;5070568;28;20196;-72
2020/12/11 02:55:51;;;;;;;27.53;16.97;;;2.50;99.90;;;;;;5062530;28;20209;-71
2020/12/11 02:58:17;;;;;;;27.60;17.53;;;2.50;99.90;;;;;;5080305;28;20236;-71
2020/12/11 03:00:44;;;;;;;25.83;17.07;;;2.40;99.90;;;;;;5073117;28;20297;-72
2020/12/11 03:03:10;;;;;;;27.27;16.50;;;2.50;99.90;;;;;;5073468;28;20237;-72
2020/12/11 03:05:36;;;;;;;27.10;17.13;;;2.40;99.90;;;;;;5074984;28;20209;-71
2020/12/11 03:08:03;;;;;;;26.40;17.37;;;2.40;99.90;;;;;;5076243;28;20639;-72
2020/12/11 03:10:29;;;;;;;25.33;16.10;;;2.50;99.90;;;;;;5076252;28;20201;-72
2020/12/11 03:12:56;;;;;;;27.73;17.03;;;2.50;99.90;;;;;;5069406;28;20231;-71
2020/12/11 03:15:23;;;;;;;24.60;16.30;;;2.50;99.90;;;;;;5078337;28;20770;-72
2020/12/11 03:17:49;;;;;;;26.63;17.30;;;2.50;99.90;;;;;;5076721;28;20236;-72
2020/12/11 03:20:22;;;;;;;24.77;16.47;;;2.40;99.90;;;;;;5088823;28;20691;-72
2020/12/11 03:22:50;;;;;;;26.10;17.33;;;2.50;99.90;;;;;;5076631;28;20285;-71
2020/12/11 03:25:16;;;;;;;27.90;16.37;;;2.50;99.90;;;;;;5072035;28;20205;-71
2020/12/11 03:27:43;;;;;;;26.90;15.97;;;2.40;99.90;;;;;;5085142;28;20210;-71
2020/12/11 03:30:10;;;;;;;27.33;17.37;;;2.40;99.90;;;;;;5081238;28;20209;-71
2020/12/11 03:32:37;;;;;;;28.43;17.67;;;2.40;99.90;;;;;;5084275;28;20208;-71
2020/12/11 03:35:04;;;;;;;26.93;16.00;;;2.40;99.90;;;;;;5082810;28;20211;-71
2020/12/11 03:37:30;;;;;;;29.60;17.60;;;2.40;99.90;;;;;;5080736;28;20757;-71
2020/12/11 03:39:56;;;;;;;26.47;17.27;;;2.40;99.90;;;;;;5080822;28;20229;-70
2020/12/11 03:42:23;;;;;;;27.93;16.77;;;2.40;99.90;;;;;;5080110;28;20292;-70
2020/12/11 03:44:49;;;;;;;24.10;15.07;;;2.50;99.90;;;;;;5085663;28;20208;-71
2020/12/11 03:47:16;;;;;;;26.63;16.77;;;2.50;99.90;;;;;;5079534;28;20244;-71
2020/12/11 03:49:43;;;;;;;25.27;16.13;;;2.40;99.90;;;;;;5065880;28;20279;-71
2020/12/11 03:52:09;;;;;;;26.87;15.77;;;2.40;99.90;;;;;;5079974;28;20550;-72
2020/12/11 03:54:35;;;;;;;24.90;15.97;;;2.40;99.90;;;;;;5086645;28;20204;-72
2020/12/11 03:57:02;;;;;;;24.93;16.10;;;2.40;99.90;;;;;;5077232;28;20209;-71
2020/12/11 03:59:28;;;;;;;26.37;15.43;;;2.30;99.90;;;;;;5073765;28;20217;-71
2020/12/11 04:01:54;;;;;;;24.50;16.43;;;2.40;99.90;;;;;;5073889;28;20212;-70
2020/12/11 04:04:22;;;;;;;24.10;15.43;;;2.30;99.90;;;;;;5074359;28;20292;-71
2020/12/11 04:06:48;;;;;;;26.40;16.10;;;2.30;99.90;;;;;;5073155;28;20202;-71
2020/12/11 04:09:14;;;;;;;25.90;15.83;;;2.30;99.90;;;;;;5074181;28;20198;-72
2020/12/11 04:11:41;;;;;;;28.33;16.87;;;2.30;99.90;;;;;;5080077;28;20231;-71
2020/12/11 04:14:07;;;;;;;22.73;15.80;;;2.30;99.90;;;;;;5076736;28;20211;-72
2020/12/11 04:16:34;;;;;;;26.97;16.87;;;2.30;99.90;;;;;;5075811;28;20551;-72
2020/12/11 04:19:01;;;;;;;27.30;16.23;;;2.40;99.90;;;;;;5075985;28;20227;-71
2020/12/11 04:21:28;;;;;;;25.50;15.00;;;2.30;99.90;;;;;;5077876;28;20208;-71
2020/12/11 04:23:54;;;;;;;26.60;16.03;;;2.40;99.90;;;;;;5075711;28;20561;-73
2020/12/11 04:26:20;;;;;;;30.07;16.97;;;2.40;99.90;;;;;;5077674;28;20211;-74
2020/12/11 04:28:47;;;;;;;30.50;17.67;;;2.40;99.90;;;;;;5068399;28;20643;-73
2020/12/11 04:31:13;;;;;;;24.73;16.77;;;2.40;99.90;;;;;;5074172;28;20669;-74
2020/12/11 04:33:40;;;;;;;29.37;18.17;;;2.30;99.90;;;;;;5078380;28;20703;-72
2020/12/11 04:36:06;;;;;;;29.50;16.63;;;2.40;99.90;;;;;;5075225;28;20630;-73
2020/12/11 04:38:34;;;;;;;31.33;17.83;;;2.40;99.90;;;;;;5071651;28;20316;-72
2020/12/11 04:41:02;;;;;;;29.93;17.37;;;2.30;99.90;;;;;;5070700;28;20296;-72
2020/12/11 04:43:28;;;;;;;29.40;18.03;;;2.40;99.90;;;;;;5077155;28;20201;-72
2020/12/11 04:45:55;;;;;;;30.77;17.97;;;2.40;99.90;;;;;;5074022;28;20215;-71
2020/12/11 04:48:21;;;;;;;31.37;18.07;;;2.40;99.90;;;;;;5075878;28;20209;-72
2020/12/11 04:50:49;;;;;;;27.13;17.07;;;2.40;99.90;;;;;;5075907;28;20206;-71
2020/12/11 04:53:16;;;;;;;29.93;19.10;;;2.40;99.90;;;;;;5076494;28;20217;-72
2020/12/11 04:55:44;;;;;;;29.80;17.87;;;2.40;99.90;;;;;;5084629;28;20214;-72
2020/12/11 04:58:15;;;;;;;31.87;17.87;;;2.40;99.90;;;;;;5073966;28;20235;-72
2020/12/11 05:00:42;;;;;;;36.40;18.13;;;2.40;99.90;;;;;;5069064;28;20212;-73
2020/12/11 05:03:12;;;;;;;32.80;18.67;;;2.40;99.90;;;;;;5073501;28;20574;-72
2020/12/11 05:05:39;;;;;;;34.20;19.40;;;2.40;99.90;;;;;;5073410;28;20714;-72
2020/12/11 05:08:17;;;;;;;32.27;18.57;;;2.30;99.90;;;;;;5073828;28;20666;-72
2020/12/11 05:10:45;;;;;;;33.47;20.00;;;2.30;99.90;;;;;;5062461;28;20205;-72
2020/12/11 05:13:19;;;;;;;31.70;19.67;;;2.30;99.90;;;;;;5080103;28;20319;-72
2020/12/11 05:16:06;;;;;;;31.17;19.27;;;2.30;99.90;;;;;;5073576;28;20205;-71
2020/12/11 05:18:33;;;;;;;31.60;18.57;;;2.40;99.90;;;;;;5059545;28;20615;-71
2020/12/11 05:21:14;;;;;;;32.23;19.53;;;2.40;99.90;;;;;;5067346;28;20209;-71
2020/12/11 05:23:58;;;;;;;30.13;18.37;;;2.40;99.90;;;;;;5072206;28;20573;-71
2020/12/11 05:26:27;;;;;;;34.27;18.23;;;2.40;99.90;;;;;;5070198;28;20564;-71
2020/12/11 05:28:53;;;;;;;36.90;19.63;;;2.50;99.90;;;;;;5071839;28;20294;-71
2020/12/11 05:31:19;;;;;;;34.80;20.33;;;2.50;99.90;;;;;;5078001;28;20672;-71
2020/12/11 05:34:09;;;;;;;32.33;19.00;;;2.50;99.90;;;;;;5074464;28;20756;-71
2020/12/11 05:36:48;;;;;;;34.97;19.97;;;2.50;99.90;;;;;;5073182;28;20197;-72
2020/12/11 05:39:19;;;;;;;34.20;19.37;;;2.50;99.90;;;;;;5073151;28;20243;-71
2020/12/11 05:41:46;;;;;;;39.13;20.60;;;2.50;99.90;;;;;;5073201;28;20209;-72
2020/12/11 05:44:27;;;;;;;36.40;21.13;;;2.50;99.90;;;;;;5073220;28;20305;-73
2020/12/11 05:46:53;;;;;;;32.83;19.50;;;2.60;99.90;;;;;;5072973;28;20240;-72
2020/12/11 05:49:30;;;;;;;36.13;21.10;;;2.60;99.90;;;;;;5073002;28;20297;-72
2020/12/11 05:52:12;;;;;;;34.37;20.33;;;2.60;99.90;;;;;;5072947;28;20208;-71
2020/12/11 05:54:42;;;;;;;34.77;20.20;;;2.60;99.90;;;;;;5076410;28;20211;-72
2020/12/11 05:57:11;;;;;;;38.30;21.43;;;2.60;99.90;;;;;;5071683;28;20212;-71
2020/12/11 05:59:38;;;;;;;37.53;21.07;;;2.60;99.90;;;;;;5062323;28;20251;-72
2020/12/11 06:02:05;;;;;;;36.63;20.57;;;2.60;99.90;;;;;;5072005;28;20300;-71
2020/12/11 06:04:31;;;;;;;36.33;20.10;;;2.60;99.90;;;;;;5069165;28;20210;-71
2020/12/11 06:06:59;;;;;;;39.30;21.27;;;2.60;99.90;;;;;;5068983;28;20692;-72
2020/12/11 06:09:34;;;;;;;35.93;21.03;;;2.70;99.90;;;;;;5070326;28;20292;-72
2020/12/11 06:12:02;;;;;;;38.53;20.53;;;2.60;99.90;;;;;;5071374;28;20228;-71
2020/12/11 06:14:56;;;;;;;38.90;19.97;;;2.60;99.90;;;;;;5073639;28;20201;-72
2020/12/11 06:17:25;;;;;;;34.80;19.77;;;2.70;99.90;;;;;;5072546;28;20216;-72
2020/12/11 06:19:54;;;;;;;39.20;21.03;;;2.70;99.90;;;;;;5073788;28;20315;-71
2020/12/11 06:22:21;;;;;;;37.00;20.73;;;2.70;99.90;;;;;;5073127;28;20217;-71
2020/12/11 06:24:48;;;;;;;35.93;20.70;;;2.60;99.90;;;;;;5072488;28;20212;-72
2020/12/11 06:27:14;;;;;;;39.03;20.23;;;2.60;99.90;;;;;;5072227;28;20215;-71
2020/12/11 06:29:41;;;;;;;38.50;19.87;;;2.60;99.90;;;;;;5072872;28;20208;-72
2020/12/11 06:32:08;;;;;;;39.07;20.67;;;2.60;99.90;;;;;;5071484;28;20215;-72
2020/12/11 06:34:35;;;;;;;38.17;20.30;;;2.60;99.90;;;;;;5060045;28;20209;-71
2020/12/11 06:37:02;;;;;;;34.70;19.47;;;2.50;99.90;;;;;;5061910;28;20231;-71
2020/12/11 06:39:42;;;;;;;36.97;20.20;;;2.50;99.90;;;;;;5075212;28;20328;-71
2020/12/11 06:42:09;;;;;;;40.37;20.40;;;2.50;99.90;;;;;;5068129;28;20232;-74
2020/12/11 06:44:36;;;;;;;39.30;20.60;;;2.50;99.90;;;;;;5069382;28;20213;-73
2020/12/11 06:47:08;;;;;;;38.40;19.37;;;2.50;99.90;;;;;;5071947;28;20300;-72
2020/12/11 06:49:36;;;;;;;36.10;20.50;;;2.50;99.90;;;;;;5076272;28;20287;-73
2020/12/11 06:52:14;;;;;;;36.03;19.70;;;2.50;99.90;;;;;;5075946;28;20240;-71
2020/12/11 06:54:51;;;;;;;33.50;18.83;;;2.50;99.90;;;;;;5082385;28;20288;-71
2020/12/11 06:57:35;;;;;;;35.83;19.43;;;2.50;99.90;;;;;;5062634;28;20292;-72
2020/12/11 07:00:23;;;;;;;34.40;18.80;;;2.50;99.90;;;;;;5082206;28;20204;-71
2020/12/11 07:03:17;;;;;;;35.67;19.47;;;2.50;99.90;;;;;;5072028;28;20205;-71
2020/12/11 07:05:44;;;;;;;35.40;19.70;;;2.50;99.90;;;;;;5076918;28;20259;-77
2020/12/11 07:08:12;;;;;;;32.67;18.60;;;2.50;99.90;;;;;;5081031;28;20292;-79
2020/12/11 07:10:39;;;;;;;33.67;18.77;;;2.60;99.90;;;;;;5084818;28;20289;-78
2020/12/11 07:13:09;;;;;;;38.13;19.50;;;2.60;99.90;;;;;;5077302;28;20232;-78
2020/12/11 07:15:35;;;;;;;32.13;18.77;;;2.60;99.90;;;;;;5080173;28;20558;-76
2020/12/11 07:18:03;;;;;;;36.27;19.30;;;2.60;99.90;;;;;;5089856;28;20256;-78
2020/12/11 07:20:30;;;;;;;34.83;18.47;;;2.60;99.90;;;;;;5075929;28;20581;-78
2020/12/11 07:23:00;;;;;;;38.33;19.33;;;2.60;99.90;;;;;;5086790;28;20266;-79
2020/12/11 07:25:28;;;;;;;30.70;18.03;;;2.60;99.90;;;;;;5084128;28;20547;-78
2020/12/11 07:28:02;;;;;;;36.73;20.13;;;2.50;99.90;;;;;;5094108;28;20666;-78
2020/12/11 07:30:29;;;;;;;33.30;19.53;;;2.60;99.90;;;;;;5081002;28;20200;-80
2020/12/11 07:32:56;;;;;;;39.70;19.27;;;2.50;99.90;;;;;;5078131;28;20290;-77
2020/12/11 07:35:23;;;;;;;34.23;19.30;;;2.50;99.90;;;;;;5067506;28;20675;-77
2020/12/11 07:37:52;;;;;;;36.33;20.37;;;2.50;99.90;;;;;;5079384;28;20248;-78
2020/12/11 07:40:19;;;;;;;35.13;18.40;;;2.60;99.90;;;;;;5074791;28;20284;-71
2020/12/11 07:42:48;;;;;;;39.23;19.43;;;2.60;99.90;;;;;;5074941;28;20201;-71
2020/12/11 07:45:25;;;;;;;33.93;19.37;;;2.60;99.90;;;;;;5068028;28;20205;-71
2020/12/11 07:47:53;;;;;;;34.03;18.70;;;2.70;99.90;;;;;;5066742;28;20212;-72
2020/12/11 07:50:23;;;;;;;36.17;19.83;;;2.60;99.90;;;;;;5082992;28;20217;-73
2020/12/11 07:52:52;;;;;;;35.30;19.80;;;2.60;99.90;;;;;;5090694;28;20244;-72
2020/12/11 07:55:19;;;;;;;34.17;19.47;;;2.70;99.90;;;;;;5066452;28;20209;-72
2020/12/11 07:57:53;;;;;;;38.83;19.87;;;2.70;99.90;;;;;;5072923;28;20244;-72
2020/12/11 08:00:21;;;;;;;36.50;19.47;;;2.70;99.90;;;;;;5070766;28;20283;-73
2020/12/11 08:02:58;;;;;;;38.70;19.90;;;2.70;99.90;;;;;;5070299;28;20280;-74
2020/12/11 08:05:25;;;;;;;35.03;19.63;;;2.70;99.90;;;;;;5074363;28;20547;-75
2020/12/11 08:07:54;;;;;;;36.43;19.27;;;2.70;99.90;;;;;;5065968;28;20215;-73
2020/12/11 08:10:22;;;;;;;36.83;19.60;;;2.70;99.90;;;;;;5077590;28;20295;-72
2020/12/11 08:12:49;;;;;;;42.50;20.53;;;2.70;99.90;;;;;;5075743;28;20225;-71
2020/12/11 08:15:30;;;;;;;35.03;19.73;;;2.70;99.90;;;;;;5071001;28;21004;-71
2020/12/11 08:18:11;;;;;;;40.37;19.53;;;2.70;99.90;;;;;;5074519;28;20300;-73
2020/12/11 08:20:51;;;;;;;36.93;18.40;;;2.70;99.90;;;;;;5073468;28;20255;-73
2020/12/11 08:23:19;;;;;;;41.53;18.60;;;2.70;99.90;;;;;;5072700;28;20288;-73
2020/12/11 08:25:46;;;;;;;34.00;19.50;;;2.80;99.90;;;;;;5074936;28;20209;-73
2020/12/11 08:28:13;;;;;;;34.97;17.30;;;2.70;99.90;;;;;;5076715;28;20676;-71
2020/12/11 08:30:40;;;;;;;36.43;17.87;;;2.70;99.90;;;;;;5075613;28;20205;-70
2020/12/11 08:33:10;;;;;;;34.33;17.90;;;2.80;99.90;;;;;;5073552;28;20292;-70
2020/12/11 08:35:36;;;;;;;35.70;17.90;;;2.80;99.90;;;;;;5072737;28;20212;-72
2020/12/11 08:38:05;;;;;;;35.57;18.67;;;2.70;99.90;;;;;;5076598;28;20207;-71
2020/12/11 08:40:46;;;;;;;39.33;19.90;;;2.80;99.90;;;;;;5065902;28;20324;-74
2020/12/11 08:43:18;;;;;;;38.13;19.07;;;2.70;99.90;;;;;;5075983;28;20220;-73
2020/12/11 08:45:56;;;;;;;40.30;18.77;;;2.70;99.90;;;;;;5071730;28;20197;-73
2020/12/11 08:48:36;;;;;;;39.63;19.73;;;2.70;99.90;;;;;;5083760;28;20201;-71
2020/12/11 08:51:04;;;;;;;41.43;19.33;;;2.80;99.90;;;;;;5072465;28;20216;-71
2020/12/11 08:53:34;;;;;;;37.90;19.60;;;2.80;99.90;;;;;;5069715;28;20209;-70
2020/12/11 08:56:05;;;;;;;41.90;20.60;;;2.80;99.90;;;;;;5086825;28;20206;-73
2020/12/11 08:58:31;;;;;;;43.07;21.37;;;2.70;99.90;;;;;;5064496;28;20642;-70
2020/12/11 09:00:57;;;;;;;46.93;21.87;;;2.70;99.90;;;;;;5073734;28;20200;-70
2020/12/11 09:03:24;;;;;;;46.87;21.63;;;2.70;99.90;;;;;;5073495;28;20645;-72
2020/12/11 09:05:53;;;;;;;44.27;21.77;;;2.70;99.90;;;;;;5071981;28;20638;-69
2020/12/11 09:08:19;;;;;;;43.63;21.37;;;2.70;99.90;;;;;;5072210;28;20193;-70
2020/12/11 09:10:45;;;;;;;44.47;21.10;;;2.80;99.90;;;;;;5072446;28;20212;-70
2020/12/11 09:13:12;;;;;;;42.43;20.43;;;2.80;99.90;;;;;;5072805;28;20225;-71
2020/12/11 09:15:39;;;;;;;45.00;20.90;;;2.80;99.90;;;;;;5068436;28;20205;-70
2020/12/11 09:18:05;;;;;;;47.83;22.97;;;2.90;99.90;;;;;;5069113;28;20284;-71
2020/12/11 09:20:32;;;;;;;43.43;22.47;;;2.80;99.90;;;;;;5070657;28;20197;-70
2020/12/11 09:22:58;;;;;;;53.60;25.87;;;2.90;99.90;;;;;;5070452;28;20804;-70
2020/12/11 09:25:25;;;;;;;54.17;25.97;;;2.90;99.90;;;;;;5072317;28;20211;-73
2020/12/11 09:27:51;;;;;;;59.57;24.57;;;3.00;99.90;;;;;;5062113;28;20320;-71
2020/12/11 09:30:25;;;;;;;59.33;23.60;;;3.00;99.90;;;;;;5064521;28;20558;-73
2020/12/11 09:32:58;;;;;;;53.73;24.83;;;3.00;99.90;;;;;;5071996;28;20266;-73
2020/12/11 09:35:27;;;;;;;55.53;24.10;;;3.00;99.90;;;;;;5072311;28;20197;-72
2020/12/11 09:37:54;;;;;;;58.83;24.60;;;3.00;99.90;;;;;;5086438;28;20242;-71
2020/12/11 09:40:24;;;;;;;59.83;24.47;;;3.00;99.90;;;;;;5081787;28;20332;-71
2020/12/11 09:43:14;;;;;;;52.83;22.70;;;3.00;99.90;;;;;;5087769;28;20200;-71
2020/12/11 09:45:45;;;;;;;49.50;22.67;;;3.10;99.90;;;;;;5086158;28;20273;-71
2020/12/11 09:48:19;;;;;;;51.97;22.33;;;3.10;99.90;;;;;;5082218;28;20691;-77
2020/12/11 09:50:58;;;;;;;60.87;24.43;;;3.10;99.90;;;;;;5083565;28;20572;-72
2020/12/11 09:56:21;;;;;;;48.53;22.13;;;3.20;99.90;;;;;;5055178;28;20669;-72
2020/12/11 09:58:49;;;;;;;60.13;23.57;;;3.30;99.90;;;;;;5069077;28;20217;-73
2020/12/11 10:01:20;;;;;;;57.40;23.43;;;3.30;99.90;;;;;;5077914;28;20213;-72
2020/12/11 10:03:47;;;;;;;54.97;21.87;;;3.30;99.90;;;;;;5073758;28;20545;-72
2020/12/11 10:06:13;;;;;;;49.17;21.57;;;3.30;99.90;;;;;;5071984;28;20232;-72
2020/12/11 10:08:39;;;;;;;47.13;21.57;;;3.30;99.90;;;;;;5071221;28;20205;-71
2020/12/11 10:11:06;;;;;;;43.57;20.23;;;3.30;99.90;;;;;;5079729;28;20293;-71
2020/12/11 10:13:35;;;;;;;52.10;22.87;;;3.20;99.90;;;;;;5075856;28;20209;-71
2020/12/11 10:16:01;;;;;;;50.17;21.70;;;3.20;99.90;;;;;;5079293;28;20261;-71
2020/12/11 10:18:28;;;;;;;49.93;20.87;;;3.10;99.90;;;;;;5078943;28;20239;-71
2020/12/11 10:20:54;;;;;;;47.43;20.80;;;3.10;99.90;;;;;;5082866;28;20208;-71
2020/12/11 10:23:21;;;;;;;50.83;23.30;;;3.00;99.90;;;;;;5080103;28;20201;-73
2020/12/11 10:25:47;;;;;;;58.80;25.40;;;3.10;99.90;;;;;;5080807;28;20597;-74
2020/12/11 10:28:14;;;;;;;47.60;19.83;;;3.00;99.90;;;;;;5072105;27;20213;-72
2020/12/11 10:30:40;;;;;;;52.50;22.17;;;3.00;99.90;;;;;;5072333;28;20212;-72
2020/12/11 10:33:06;;;;;;;56.80;22.17;;;3.00;99.90;;;;;;5079865;28;20207;-73
2020/12/11 10:35:34;;;;;;;51.47;21.00;;;3.00;99.90;;;;;;5076845;28;20209;-73
2020/12/11 10:38:00;;;;;;;47.60;21.80;;;3.00;99.90;;;;;;5078885;28;20300;-74
2020/12/11 10:40:26;;;;;;;49.10;22.50;;;3.00;99.90;;;;;;5076626;28;20231;-74
2020/12/11 10:42:53;;;;;;;52.83;23.90;;;3.00;99.90;;;;;;5084718;28;20303;-74
2020/12/11 10:45:19;;;;;;;50.80;24.00;;;3.00;99.90;;;;;;5078819;28;20660;-71
2020/12/11 10:47:45;;;;;;;46.83;20.90;;;3.00;99.90;;;;;;5075350;28;20198;-71
2020/12/11 10:50:12;;;;;;;50.47;23.27;;;3.00;99.90;;;;;;5078709;28;20250;-72
2020/12/11 10:52:41;;;;;;;56.60;23.70;;;3.00;99.90;;;;;;5075585;28;20201;-79
2020/12/11 10:55:07;;;;;;;54.10;23.43;;;3.00;99.90;;;;;;5077541;28;20312;-75
2020/12/11 10:57:34;;;;;;;58.63;24.73;;;3.10;99.90;;;;;;5069389;28;20288;-74
2020/12/11 11:00:00;;;;;;;56.97;25.63;;;3.20;99.90;;;;;;5075324;28;20255;-73
2020/12/11 11:02:26;;;;;;;51.37;25.17;;;3.20;99.90;;;;;;5074857;28;20205;-75
2020/12/11 11:04:53;;;;;;;53.07;24.33;;;3.20;99.90;;;;;;5077652;28;20698;-73
2020/12/11 11:07:23;;;;;;;54.50;24.53;;;3.30;99.90;;;;;;5075323;28;20624;-76
2020/12/11 11:10:00;;;;;;;50.00;24.70;;;3.20;99.90;;;;;;5081370;28;20242;-72
2020/12/11 11:12:28;;;;;;;47.40;23.63;;;3.20;99.90;;;;;;5083622;28;20233;-72
2020/12/11 11:20:48;;;;;;;58.60;25.93;;;3.20;99.90;;;;;;5076276;28;20208;-71
2020/12/11 11:23:32;;;;;;;55.60;27.80;;;3.20;99.90;;;;;;5073478;28;20205;-71
2020/12/11 11:26:18;;;;;;;53.60;25.03;;;3.20;99.90;;;;;;5072355;28;20551;-72
2020/12/11 11:28:45;;;;;;;50.47;25.03;;;3.30;99.90;;;;;;5073968;28;20251;-71
2020/12/11 11:31:11;;;;;;;55.83;24.93;;;3.30;99.90;;;;;;5073450;28;20293;-72
2020/12/11 11:33:38;;;;;;;57.87;25.90;;;3.40;99.90;;;;;;5072250;28;20661;-73
2020/12/11 11:36:04;;;;;;;56.77;24.63;;;3.40;99.90;;;;;;5069658;28;20289;-72
2020/12/11 11:38:31;;;;;;;52.00;25.30;;;3.40;99.90;;;;;;5075768;28;20228;-71
2020/12/11 11:40:57;;;;;;;50.27;23.50;;;3.50;99.90;;;;;;5072435;28;20701;-71
2020/12/11 11:43:35;;;;;;;53.03;23.83;;;3.40;99.90;;;;;;5075486;28;20610;-71
2020/12/11 11:46:02;;;;;;;56.57;24.93;;;3.40;99.90;;;;;;5079751;28;20636;-71
2020/12/11 11:48:28;;;;;;;49.00;25.03;;;3.40;99.90;;;;;;5072941;28;20205;-71
2020/12/11 11:51:00;;;;;;;51.83;24.60;;;3.40;99.90;;;;;;5072834;28;20604;-71
2020/12/11 11:53:27;;;;;;;49.93;23.50;;;3.50;99.90;;;;;;5072241;28;20213;-72
2020/12/11 11:55:53;;;;;;;49.60;23.73;;;3.50;99.90;;;;;;5077692;28;20205;-71
2020/12/11 11:58:21;;;;;;;46.57;23.43;;;3.50;99.90;;;;;;5077554;28;20208;-72
2020/12/11 12:00:48;;;;;;;51.63;25.70;;;3.50;99.90;;;;;;5075631;28;20673;-73
2020/12/11 12:03:15;;;;;;;51.50;24.20;;;3.50;99.90;;;;;;5072937;28;20281;-71
2020/12/11 12:05:42;;;;;;;46.00;22.03;;;3.40;99.90;;;;;;5074318;28;20212;-70
2020/12/11 12:08:08;;;;;;;45.63;22.50;;;3.40;99.90;;;;;;5073242;28;20223;-72
2020/12/11 12:10:35;;;;;;;44.47;23.17;;;3.40;99.90;;;;;;5070929;28;20322;-71
2020/12/11 12:13:02;;;;;;;46.10;22.70;;;3.40;99.90;;;;;;5072694;28;20233;-71
2020/12/11 12:15:28;;;;;;;45.67;23.13;;;3.40;99.90;;;;;;5077813;28;20205;-71
2020/12/11 12:17:59;;;;;;;44.13;22.83;;;3.30;99.90;;;;;;5073712;28;20211;-73
2020/12/11 12:20:35;;;;;;;42.77;22.27;;;3.30;99.90;;;;;;5081060;28;20208;-72
2020/12/11 12:28:53;;;;;;;41.53;21.13;;;3.40;99.90;;;;;;5072427;28;20181;-72
2020/12/11 12:31:23;;;;;;;39.83;20.40;;;3.30;99.90;;;;;;5070731;28;20217;-71
2020/12/11 12:37:10;;;;;;;39.77;20.07;;;3.30;99.90;;;;;;5080845;28;20193;-72
2020/12/11 12:42:40;;;;;;;38.33;22.33;;;3.30;99.90;;;;;;5054271;28;20197;-70
2020/12/11 12:45:07;;;;;;;37.13;20.27;;;3.30;99.90;;;;;;5073447;28;20662;-72
2020/12/11 12:47:34;;;;;;;40.83;21.50;;;3.30;99.90;;;;;;5073725;28;20213;-72
2020/12/11 12:50:01;;;;;;;36.87;20.87;;;3.30;99.90;;;;;;5073841;28;20204;-72
2020/12/11 12:52:30;;;;;;;35.87;18.67;;;3.30;99.90;;;;;;5067520;28;20216;-72
2020/12/11 12:54:56;;;;;;;35.33;19.27;;;3.30;99.90;;;;;;5079482;28;20209;-71
2020/12/11 12:57:26;;;;;;;31.53;17.57;;;3.40;99.90;;;;;;5072410;28;20213;-72
2020/12/11 12:59:58;;;;;;;33.73;18.60;;;3.30;99.90;;;;;;5074101;28;20236;-77
2020/12/11 13:05:12;;;;;;;35.53;19.60;;;3.20;99.90;;;;;;5067674;28;20203;-74
2020/12/11 13:07:39;;;;;;;34.17;19.20;;;3.20;99.90;;;;;;5073024;28;20662;-74